Rankings de siempre
Mejores tiempos personales válidos de equipo a través de todos los eventos y temporadas. Cada equipo aparece una vez por división.
Busca por nombre y abre la página donde está clasificado este récord de división.
137,989 equipos clasificados
| Pos. | Pos. AG | Equipo | Nacionalidad | Categoría de edad | TiempoMejor tiempo | Diferencia |
|---|---|---|---|---|---|---|
| 136226 | #20140 | Thuliswa Funda & Ingrid MtsweniRSA · W 25-29 · AG #20140 | RSA | W 25-29 | 2:11:26 | +78:05 |
| 136227 | #43006 | Hanim Z. & Haifaa J.SIN · W 30-34 · AG #43006 | SIN | W 30-34 | 2:11:26 | +78:05 |
| 136228 | #20141 | 瑩真 李 & 靖恬 黃TPE · W 25-29 · AG #20141 | TPE | W 25-29 | 2:11:26 | +78:05 |
| 136229 | #11128 | Kayleigh Beltman & Maud SonneveldNED · W 16-24 · AG #11128 | NED | W 16-24 | 2:11:26 | +78:05 |
| 136230 | #14980 | Laura Van Genechten & Amanda FerberBEL · W 35-39 · AG #14980 | BEL | W 35-39 | 2:11:27 | +78:06 |
| 136231 | -- | Déborah Noel & Ysaline NoelBEL · W WU29 | BEL | W WU29 | 2:11:27 | +78:06 |
| 136232 | #43007 | Niamh Macer & Jacqui DwyerIRL · W 30-34 · AG #43007 | IRL | W 30-34 | 2:11:27 | +78:06 |
| 136233 | #19524 | Cynthia BASA & Stephanie SOTOUSA · W 40-44 · AG #19524 | USA | W 40-44 | 2:11:28 | +78:07 |
| 136234 | #43008 | Xail Hernandez & Marisol GarciaUSA · W 30-34 · AG #43008 | USA | W 30-34 | 2:11:28 | +78:07 |
| 136235 | #43009 | Avon Dulnuan & Ma. Dolores GagnaoPHI · W 30-34 · AG #43009 | PHI | W 30-34 | 2:11:28 | +78:07 |
| 136236 | #14981 | Marsheil Jean Pita & Maria Muhini SimanskiUSA · W 35-39 · AG #14981 | USA | W 35-39 | 2:11:28 | +78:07 |
| 136237 | #1312 | Stefanie Jaenicke & Emiliya HasovsGER · W 30-39 · AG #1312 | GER | W 30-39 | 2:11:29 | +78:08 |
| 136238 | #43010 | Pamela Pazmino & Lauren RodriguezUSA · W 30-34 · AG #43010 | USA | W 30-34 | 2:11:29 | +78:08 |
| 136239 | #14982 | Marilyn Rodriguez & Stephanie BaysingerUSA · W 35-39 · AG #14982 | USA | W 35-39 | 2:11:29 | +78:08 |
| 136240 | #43011 | Tameka Lyons & Tamera EllerbeeUSA · W 30-34 · AG #43011 | USA | W 30-34 | 2:11:30 | +78:09 |
| 136241 | #43012 | Morgane Duquennoy & Magali BonnièreFRA · W 30-34 · AG #43012 | FRA | W 30-34 | 2:11:30 | +78:09 |
| 136242 | #43013 | Kimberley Scott & Maria CapanniGBR · W 30-34 · AG #43013 | GBR | W 30-34 | 2:11:30 | +78:09 |
| 136243 | #11129 | Viraj Shah & Devika PawarIND · W 16-24 · AG #11129 | IND | W 16-24 | 2:11:30 | +78:09 |
| 136244 | #19525 | Carmina Silva & Brissia PrietoMEX · W 40-44 · AG #19525 | MEX | W 40-44 | 2:11:31 | +78:10 |
| 136245 | #43014 | Efe Umukoro & Jenevieve HarrisonUSA · W 30-34 · AG #43014 | USA | W 30-34 | 2:11:31 | +78:10 |
| 136246 | -- | Fleur Oonincx & Rowena RostamNED · W WU29 | NED | W WU29 | 2:11:32 | +78:11 |
| 136247 | #43015 | Zandile Skhosana & Maishane SomoRSA · W 30-34 · AG #43015 | RSA | W 30-34 | 2:11:33 | +78:12 |
| 136248 | #19526 | Cintia Rodriguez Duarte & Carla BodenW 40-44 · AG #19526 | -- | W 40-44 | 2:11:33 | +78:12 |
| 136249 | #11130 | Ana Cecilia Chávez Ochoa & Daniella Arias CuevaMEX · W 16-24 · AG #11130 | MEX | W 16-24 | 2:11:34 | +78:13 |
| 136250 | #19527 | Shweta Rampuria & Aarti MashruwalaIND · W 40-44 · AG #19527 | IND | W 40-44 | 2:11:34 | +78:13 |
Página 5,450 de 5,520